Time;durP1;ratioP1;P1;durP2;ratioP2;P2;SDS_P1;SDS_P2;PMS_P1;PMS_P2;Temp;Humidity;BMP_temperature;BMP_pressure;BME280_temperature;BME280_humidity;BME280_pressure;Samples;Min_cycle;Max_cycle;Signal;HPM_P1;HPM_P2
2023/08/26 00:02:26;;;;;;;10.43;7.18;;;22.10;63.30;;;;;;4964669;28;20053;-62
2023/08/26 00:04:53;;;;;;;10.35;6.60;;;22.00;63.40;;;;;;4964645;28;20606;-68
2023/08/26 00:07:22;;;;;;;9.40;6.13;;;21.90;63.40;;;;;;4965648;28;20061;-66
2023/08/26 00:09:49;;;;;;;10.35;5.70;;;21.90;63.60;;;;;;4966130;28;20507;-66
2023/08/26 00:12:16;;;;;;;10.82;6.32;;;21.90;64.10;;;;;;4966397;28;20054;-66
2023/08/26 00:14:46;;;;;;;8.35;5.40;;;21.90;64.40;;;;;;4964810;28;20057;-66
2023/08/26 00:17:13;;;;;;;10.60;6.32;;;21.90;64.60;;;;;;4965533;28;20050;-67
2023/08/26 00:19:44;;;;;;;7.00;5.93;;;21.90;64.60;;;;;;4964692;28;20050;-67
2023/08/26 00:22:12;;;;;;;10.32;6.05;;;21.90;64.80;;;;;;4963953;28;20050;-67
2023/08/26 00:24:40;;;;;;;8.82;5.55;;;21.90;65.60;;;;;;4966658;28;20511;-68
2023/08/26 00:27:08;;;;;;;11.93;7.03;;;22.00;64.90;;;;;;4964893;28;20487;-65
2023/08/26 00:29:35;;;;;;;7.55;5.93;;;22.00;64.30;;;;;;4964654;28;20058;-67
2023/08/26 00:32:02;;;;;;;10.05;6.13;;;22.00;64.30;;;;;;4965532;28;20073;-63
2023/08/26 00:34:30;;;;;;;11.55;6.80;;;22.00;63.80;;;;;;4964840;28;20050;-64
2023/08/26 00:36:57;;;;;;;9.68;6.60;;;22.00;63.90;;;;;;4965199;28;20065;-66
2023/08/26 00:39:24;;;;;;;17.83;8.02;;;22.00;63.50;;;;;;4964813;28;20050;-66
2023/08/26 00:41:53;;;;;;;14.07;8.57;;;22.00;63.30;;;;;;4963314;28;20055;-67
2023/08/26 00:44:20;;;;;;;11.38;7.57;;;22.00;62.60;;;;;;4964482;28;20059;-67
2023/08/26 00:46:47;;;;;;;11.05;7.18;;;22.00;62.50;;;;;;4962877;28;20492;-67
2023/08/26 00:49:14;;;;;;;12.40;7.07;;;22.00;62.50;;;;;;4964739;28;20507;-66
2023/08/26 00:51:42;;;;;;;13.35;7.80;;;22.00;62.70;;;;;;4963054;28;20065;-64
2023/08/26 00:54:09;;;;;;;13.00;8.25;;;22.00;62.50;;;;;;4965131;28;20423;-68
2023/08/26 00:56:37;;;;;;;9.85;6.47;;;22.00;61.50;;;;;;4964399;28;20486;-67
2023/08/26 00:59:06;;;;;;;10.27;7.10;;;22.00;61.30;;;;;;4964231;28;20065;-66
2023/08/26 01:01:35;;;;;;;11.55;6.10;;;22.00;61.10;;;;;;4972016;23;20043;-88
2023/08/26 01:04:03;;;;;;;10.40;5.97;;;21.90;59.90;;;;;;4964166;28;20417;-87
2023/08/26 01:06:32;;;;;;;12.27;5.63;;;21.90;59.70;;;;;;4961324;28;20073;-87
2023/08/26 01:08:59;;;;;;;7.53;4.60;;;21.90;59.10;;;;;;4969547;28;20062;-87
2023/08/26 01:11:36;;;;;;;8.98;4.78;;;21.90;58.30;;;;;;4964045;28;20054;-87
2023/08/26 01:14:12;;;;;;;8.55;4.03;;;21.80;58.00;;;;;;4964842;28;20062;-89
2023/08/26 01:16:40;;;;;;;7.32;4.07;;;21.80;58.10;;;;;;4962094;28;20505;-87
2023/08/26 01:19:18;;;;;;;8.20;4.68;;;21.70;58.20;;;;;;4963530;28;20062;-87
2023/08/26 01:21:47;;;;;;;9.30;3.90;;;21.70;57.70;;;;;;4962465;28;20042;-87
2023/08/26 01:24:16;;;;;;;7.05;3.55;;;21.70;58.00;;;;;;4962761;28;20418;-89
2023/08/26 01:26:43;;;;;;;9.57;4.82;;;21.70;57.80;;;;;;4963018;28;20055;-86
2023/08/26 01:29:11;;;;;;;9.10;4.10;;;21.60;57.60;;;;;;4963325;28;20097;-86
2023/08/26 01:31:39;;;;;;;7.15;3.72;;;21.60;57.40;;;;;;4970416;28;20062;-87
2023/08/26 01:34:11;;;;;;;8.18;3.90;;;21.60;57.30;;;;;;4963254;28;20061;-87
2023/08/26 01:36:43;;;;;;;8.88;3.40;;;21.50;57.10;;;;;;4962591;28;20051;-86
2023/08/26 01:39:12;;;;;;;5.15;2.85;;;21.50;56.90;;;;;;4962703;28;20498;-88
2023/08/26 01:41:43;;;;;;;7.95;3.92;;;21.50;57.10;;;;;;4963234;28;20414;-88
2023/08/26 01:44:11;;;;;;;10.07;3.58;;;21.50;56.90;;;;;;4962370;28;20414;-86
2023/08/26 01:46:40;;;;;;;5.68;3.22;;;21.40;57.10;;;;;;4961871;28;20503;-87
2023/08/26 01:49:07;;;;;;;7.20;2.92;;;21.40;57.30;;;;;;4964120;28;20061;-88
2023/08/26 01:51:35;;;;;;;2.92;2.45;;;21.40;56.80;;;;;;4961795;28;20499;-87
2023/08/26 01:54:03;;;;;;;4.03;2.70;;;21.40;56.70;;;;;;4963932;28;20054;-87
2023/08/26 01:56:30;;;;;;;6.97;2.92;;;21.40;56.70;;;;;;4962443;28;20050;-88
2023/08/26 01:58:59;;;;;;;3.83;2.35;;;21.40;55.60;;;;;;4965988;28;20499;-89
2023/08/26 02:01:26;;;;;;;4.03;2.45;;;21.30;56.00;;;;;;4966779;28;20050;-88
2023/08/26 02:03:53;;;;;;;5.18;2.40;;;21.30;55.60;;;;;;4967291;28;20456;-87
2023/08/26 02:06:21;;;;;;;4.40;2.35;;;21.30;56.00;;;;;;4964703;28;20055;-87
2023/08/26 02:08:48;;;;;;;3.08;1.95;;;21.30;55.30;;;;;;4966598;28;20050;-89
2023/08/26 02:11:15;;;;;;;5.25;1.80;;;21.30;55.60;;;;;;4967146;28;20051;-86
2023/08/26 02:13:43;;;;;;;3.53;1.80;;;21.30;55.60;;;;;;4965732;28;20081;-87
2023/08/26 02:16:11;;;;;;;5.20;2.10;;;21.30;55.30;;;;;;4967098;28;20058;-87
2023/08/26 02:18:38;;;;;;;4.22;1.88;;;21.30;55.20;;;;;;4966897;28;20046;-88
2023/08/26 02:21:06;;;;;;;4.75;1.70;;;21.30;54.30;;;;;;4964192;28;20081;-88
2023/08/26 02:23:33;;;;;;;4.22;1.50;;;21.20;54.20;;;;;;4965568;28;20046;-88
2023/08/26 02:26:00;;;;;;;4.22;1.70;;;21.20;53.90;;;;;;4966531;28;20058;-87
2023/08/26 02:28:28;;;;;;;4.18;1.65;;;21.20;53.00;;;;;;4966556;28;20051;-86
2023/08/26 02:30:55;;;;;;;3.47;1.33;;;21.10;52.80;;;;;;4965231;28;20065;-85
2023/08/26 02:33:24;;;;;;;3.58;1.58;;;21.10;53.10;;;;;;4964441;28;20503;-89
2023/08/26 02:35:51;;;;;;;2.60;1.52;;;21.10;52.60;;;;;;4964883;28;20055;-85
2023/08/26 02:38:18;;;;;;;3.75;1.58;;;21.00;52.90;;;;;;4965646;28;20492;-86
2023/08/26 02:40:52;;;;;;;3.45;1.70;;;21.00;53.30;;;;;;4971563;28;20418;-89
2023/08/26 02:43:20;;;;;;;2.65;1.50;;;21.00;51.00;;;;;;4967608;28;20046;-86
2023/08/26 02:45:51;;;;;;;2.88;1.40;;;21.00;50.50;;;;;;4966798;28;20514;-88
2023/08/26 02:48:18;;;;;;;3.67;1.67;;;20.90;50.60;;;;;;4965660;28;20055;-86
2023/08/26 02:50:47;;;;;;;5.20;1.75;;;20.80;50.20;;;;;;4964831;28;20499;-86
2023/08/26 02:53:15;;;;;;;4.50;2.30;;;20.70;49.60;;;;;;4966058;28;20055;-87
2023/08/26 02:55:42;;;;;;;6.47;1.80;;;20.60;49.80;;;;;;4966408;28;20051;-86
2023/08/26 02:58:09;;;;;;;4.65;1.73;;;20.50;50.10;;;;;;4966440;28;20073;-85
2023/08/26 03:00:36;;;;;;;3.83;1.55;;;20.40;50.40;;;;;;4965899;28;20050;-86
2023/08/26 03:03:04;;;;;;;6.05;1.90;;;20.40;50.70;;;;;;4971852;28;20061;-87
2023/08/26 03:05:31;;;;;;;3.17;1.83;;;20.30;50.80;;;;;;4965773;28;20062;-86
2023/08/26 03:08:00;;;;;;;3.83;1.52;;;20.30;50.80;;;;;;4972051;28;20997;-86
2023/08/26 03:10:27;;;;;;;6.03;1.70;;;20.20;51.00;;;;;;4965058;28;20062;-87
2023/08/26 03:12:55;;;;;;;4.22;2.10;;;20.10;51.10;;;;;;4965336;28;20529;-88
2023/08/26 03:15:22;;;;;;;4.03;1.50;;;20.10;51.30;;;;;;4965133;28;20077;-85
2023/08/26 03:17:50;;;;;;;4.03;1.85;;;20.00;51.70;;;;;;4966024;28;20046;-85
2023/08/26 03:20:17;;;;;;;5.95;1.95;;;19.90;51.70;;;;;;4963772;28;20503;-85
2023/08/26 03:22:44;;;;;;;6.70;1.92;;;19.90;51.70;;;;;;4966125;28;20050;-86
2023/08/26 03:25:13;;;;;;;8.75;2.35;;;19.90;51.80;;;;;;4965124;28;20050;-86
2023/08/26 03:27:40;;;;;;;5.72;2.08;;;19.80;51.70;;;;;;4965832;28;20062;-86
2023/08/26 03:30:08;;;;;;;3.25;2.00;;;19.70;51.80;;;;;;4964724;28;20503;-86
2023/08/26 03:32:36;;;;;;;6.97;2.17;;;19.70;52.00;;;;;;4962365;28;20046;-86
2023/08/26 03:35:03;;;;;;;3.35;1.88;;;19.60;52.30;;;;;;4962959;28;20082;-88
2023/08/26 03:37:30;;;;;;;2.78;1.73;;;19.50;52.80;;;;;;4964393;28;20050;-85
2023/08/26 03:39:59;;;;;;;3.50;1.88;;;19.50;53.00;;;;;;4964660;28;20054;-85
2023/08/26 03:42:28;;;;;;;3.97;1.90;;;19.40;53.20;;;;;;4964685;28;20058;-85
2023/08/26 03:44:55;;;;;;;3.95;1.80;;;19.40;53.60;;;;;;4963192;28;20061;-87
2023/08/26 03:47:23;;;;;;;6.45;1.65;;;19.40;53.70;;;;;;4965434;28;20058;-86
2023/08/26 03:49:50;;;;;;;4.07;1.55;;;19.40;53.90;;;;;;4968104;28;20495;-86
2023/08/26 03:52:17;;;;;;;3.35;1.73;;;19.30;53.80;;;;;;4964115;28;20055;-87
2023/08/26 03:54:44;;;;;;;2.65;1.80;;;19.30;54.00;;;;;;4971603;28;20046;-88
2023/08/26 03:57:11;;;;;;;2.28;1.60;;;19.30;54.00;;;;;;4964665;28;20074;-88
2023/08/26 03:59:40;;;;;;;3.10;1.73;;;19.30;54.10;;;;;;4965027;28;20061;-88
2023/08/26 04:02:07;;;;;;;4.60;1.50;;;19.30;54.00;;;;;;4965241;28;20058;-87
2023/08/26 04:04:35;;;;;;;9.57;1.75;;;19.20;53.80;;;;;;4964690;28;20058;-87
2023/08/26 04:07:02;;;;;;;2.78;1.42;;;19.20;53.80;;;;;;4972329;28;20054;-86
2023/08/26 04:09:29;;;;;;;2.20;1.35;;;19.20;53.70;;;;;;4965238;28;20487;-87
2023/08/26 04:11:56;;;;;;;2.35;1.48;;;19.20;53.80;;;;;;4965830;28;20054;-87
2023/08/26 04:14:23;;;;;;;2.97;1.27;;;19.20;53.60;;;;;;4966562;28;20058;-88
2023/08/26 04:16:52;;;;;;;2.65;1.23;;;19.10;53.70;;;;;;4965103;28;20047;-87
2023/08/26 04:19:20;;;;;;;3.95;1.20;;;19.10;53.70;;;;;;4964835;28;20046;-88
2023/08/26 04:21:48;;;;;;;2.53;1.00;;;19.10;53.80;;;;;;4963952;28;20498;-87
2023/08/26 04:24:15;;;;;;;1.40;0.93;;;19.10;53.90;;;;;;4963489;28;20058;-87
2023/08/26 04:26:42;;;;;;;3.70;0.88;;;19.00;53.90;;;;;;4964184;28;20333;-86
2023/08/26 04:29:09;;;;;;;3.50;1.05;;;19.00;53.90;;;;;;4965778;28;20982;-87
2023/08/26 04:31:37;;;;;;;2.97;1.10;;;19.00;53.90;;;;;;4966089;28;20065;-86
2023/08/26 04:34:05;;;;;;;2.50;1.30;;;19.00;53.90;;;;;;4964827;28;20058;-87
2023/08/26 04:36:33;;;;;;;1.23;1.08;;;19.00;53.80;;;;;;4966661;28;20059;-89
2023/08/26 04:39:00;;;;;;;2.47;1.13;;;18.90;54.00;;;;;;4964743;28;20051;-88
2023/08/26 04:41:27;;;;;;;2.47;1.15;;;18.90;53.90;;;;;;4962534;28;20051;-89
2023/08/26 04:43:54;;;;;;;3.10;1.15;;;18.90;53.80;;;;;;4963661;28;20046;-88
2023/08/26 04:46:23;;;;;;;2.38;1.13;;;18.90;53.90;;;;;;4964438;28;20054;-87
2023/08/26 04:48:51;;;;;;;2.03;1.00;;;18.90;54.40;;;;;;4969589;28;20074;-88
2023/08/26 04:51:20;;;;;;;17.27;8.73;;;18.80;54.00;;;;;;4961931;28;20061;-89
2023/08/26 04:53:47;;;;;;;13.00;7.35;;;18.80;54.00;;;;;;4965007;28;20533;-87
2023/08/26 04:56:15;;;;;;;5.00;2.40;;;18.80;53.70;;;;;;4963066;28;20059;-87
2023/08/26 04:58:42;;;;;;;3.83;1.50;;;18.80;53.30;;;;;;4964993;28;20510;-87
2023/08/26 05:01:09;;;;;;;2.13;1.20;;;18.80;53.10;;;;;;4961721;28;20062;-88
2023/08/26 05:03:37;;;;;;;2.90;1.20;;;18.70;53.00;;;;;;4968354;28;20054;-90
2023/08/26 05:06:04;;;;;;;1.55;0.90;;;18.60;53.00;;;;;;4959752;28;20063;-89
2023/08/26 05:08:33;;;;;;;3.10;1.20;;;18.60;53.30;;;;;;4963660;28;20498;-87
2023/08/26 05:11:03;;;;;;;1.40;0.95;;;18.60;53.50;;;;;;4963918;28;20059;-88
2023/08/26 05:13:30;;;;;;;3.42;0.95;;;18.50;53.30;;;;;;4964234;28;20055;-87
2023/08/26 05:15:57;;;;;;;1.65;0.77;;;18.50;53.30;;;;;;4959809;28;20069;-89
2023/08/26 05:18:25;;;;;;;2.67;0.95;;;18.50;53.50;;;;;;4962644;28;20414;-85
2023/08/26 05:20:52;;;;;;;1.77;0.88;;;18.50;53.40;;;;;;4962792;28;20517;-87
2023/08/26 05:23:19;;;;;;;2.28;1.02;;;18.50;53.60;;;;;;4964692;28;20065;-86
2023/08/26 05:25:48;;;;;;;1.52;0.88;;;18.40;53.80;;;;;;4964158;28;20062;-85
2023/08/26 05:28:16;;;;;;;2.58;1.30;;;18.40;53.80;;;;;;4965123;28;20563;-88
2023/08/26 05:30:43;;;;;;;6.57;3.38;;;18.40;53.90;;;;;;4963278;28;20077;-87
2023/08/26 05:33:11;;;;;;;7.07;3.47;;;18.40;54.10;;;;;;4965001;28;20055;-86
2023/08/26 05:35:38;;;;;;;4.00;2.15;;;18.40;54.30;;;;;;4966280;28;20491;-87
2023/08/26 05:38:05;;;;;;;2.30;1.20;;;18.50;54.50;;;;;;4966983;28;20058;-87
2023/08/26 05:40:33;;;;;;;5.10;1.10;;;18.50;54.60;;;;;;4968806;28;20054;-89
2023/08/26 05:43:02;;;;;;;2.55;0.90;;;18.50;54.60;;;;;;4965676;28;20058;-87
2023/08/26 05:45:31;;;;;;;1.75;0.90;;;18.50;54.70;;;;;;4965632;28;20059;-88
2023/08/26 05:47:58;;;;;;;0.73;0.70;;;18.50;54.60;;;;;;4964770;28;20055;-87
2023/08/26 05:50:25;;;;;;;3.10;0.95;;;18.60;54.70;;;;;;4965721;28;20491;-87
2023/08/26 05:52:52;;;;;;;1.45;0.70;;;18.50;54.70;;;;;;4973584;28;20058;-88
2023/08/26 05:55:20;;;;;;;1.88;0.95;;;18.60;54.90;;;;;;4966921;28;20050;-88
2023/08/26 05:57:47;;;;;;;2.33;0.77;;;18.60;54.70;;;;;;4967646;28;20059;-87
2023/08/26 06:00:17;;;;;;;2.50;0.90;;;18.60;54.60;;;;;;4965890;28;20059;-86
2023/08/26 06:02:44;;;;;;;5.65;1.42;;;18.60;54.70;;;;;;4970632;28;20062;-88
2023/08/26 06:05:12;;;;;;;1.38;0.90;;;18.70;54.60;;;;;;4964738;28;20062;-88
2023/08/26 06:07:39;;;;;;;3.08;1.10;;;18.70;54.40;;;;;;4966153;28;20061;-89
2023/08/26 06:10:07;;;;;;;4.85;0.90;;;18.70;54.50;;;;;;4965402;28;20051;-90
2023/08/26 06:12:34;;;;;;;4.72;0.95;;;18.70;54.60;;;;;;4963409;28;20442;-88
2023/08/26 06:15:02;;;;;;;3.33;1.30;;;18.70;54.80;;;;;;4963862;28;20419;-88
2023/08/26 06:17:32;;;;;;;5.22;1.10;;;18.80;54.60;;;;;;4965044;28;20051;-89
2023/08/26 06:19:59;;;;;;;5.70;1.40;;;18.70;55.10;;;;;;4962725;28;20074;-87
2023/08/26 06:25:53;;;;;;;1.08;0.80;;;18.80;54.50;;;;;;4966532;28;20034;-89
2023/08/26 06:28:20;;;;;;;1.10;0.63;;;18.90;55.20;;;;;;4964643;28;20054;-89
2023/08/26 06:30:47;;;;;;;3.13;1.02;;;18.90;54.90;;;;;;4964586;28;20066;-88
2023/08/26 06:33:17;;;;;;;3.05;0.95;;;18.90;55.10;;;;;;4964360;28;20502;-89
2023/08/26 06:35:47;;;;;;;1.60;1.00;;;18.90;54.90;;;;;;4963748;28;20058;-92
2023/08/26 06:38:16;;;;;;;2.50;1.00;;;19.00;55.00;;;;;;4968838;28;20058;-91
2023/08/26 06:40:43;;;;;;;1.83;0.88;;;19.00;55.20;;;;;;4966627;28;20507;-89
2023/08/26 06:43:10;;;;;;;2.42;0.90;;;19.00;55.80;;;;;;4965484;28;20391;-89
2023/08/26 06:45:38;;;;;;;3.60;1.00;;;19.10;55.40;;;;;;4964534;28;20050;-88
2023/08/26 06:48:06;;;;;;;3.15;0.90;;;19.10;55.30;;;;;;4966208;28;20054;-88
2023/08/26 06:50:34;;;;;;;1.42;0.93;;;19.20;55.40;;;;;;4964606;28;20059;-87
2023/08/26 06:53:02;;;;;;;3.20;1.13;;;19.20;55.50;;;;;;4966648;28;20065;-91
2023/08/26 06:55:29;;;;;;;3.88;1.25;;;19.30;55.40;;;;;;4965073;28;20051;-89
2023/08/26 06:57:56;;;;;;;1.83;0.80;;;19.30;55.30;;;;;;4963386;28;20059;-89
2023/08/26 07:00:23;;;;;;;1.70;0.90;;;19.30;55.30;;;;;;4964758;28;20422;-90
2023/08/26 07:02:51;;;;;;;4.72;0.90;;;19.30;55.00;;;;;;4970821;28;20054;-90
2023/08/26 07:05:18;;;;;;;1.85;0.95;;;19.40;54.90;;;;;;4963176;28;20539;-89
2023/08/26 07:07:47;;;;;;;1.83;0.93;;;19.40;54.80;;;;;;4965078;28;20055;-90
2023/08/26 07:10:16;;;;;;;2.85;1.10;;;19.40;54.70;;;;;;4964530;28;20050;-92
2023/08/26 07:12:43;;;;;;;7.80;1.55;;;19.50;54.50;;;;;;4964943;28;20059;-89
2023/08/26 07:15:11;;;;;;;2.92;1.45;;;19.50;54.40;;;;;;4966706;28;20502;-89
2023/08/26 07:17:38;;;;;;;2.58;1.38;;;19.50;54.30;;;;;;4964126;28;20074;-90
2023/08/26 07:20:08;;;;;;;2.40;1.10;;;19.50;54.30;;;;;;4964212;28;20514;-91
2023/08/26 07:22:35;;;;;;;6.53;1.33;;;19.60;54.30;;;;;;4966455;28;20062;-89
2023/08/26 07:25:05;;;;;;;5.72;2.10;;;19.60;54.30;;;;;;4963947;28;20059;-90
2023/08/26 07:27:32;;;;;;;3.17;1.30;;;19.70;54.20;;;;;;4966082;28;20373;-90
2023/08/26 07:30:00;;;;;;;2.42;1.10;;;19.70;54.10;;;;;;4965426;28;20066;-92
2023/08/26 07:32:27;;;;;;;4.53;1.77;;;19.70;53.90;;;;;;4964040;28;20494;-91
2023/08/26 07:34:54;;;;;;;3.08;0.85;;;19.80;53.80;;;;;;4962423;28;20054;-91
2023/08/26 07:38:17;;;;;;;1.90;0.90;;;19.80;53.80;;;;;;4964111;28;20054;-94
2023/08/26 07:40:46;;;;;;;7.15;1.08;;;19.80;53.40;;;;;;4963095;28;20057;-87
2023/08/26 07:43:13;;;;;;;2.55;0.70;;;19.90;53.50;;;;;;4963326;28;20068;-89
2023/08/26 07:45:40;;;;;;;2.75;1.08;;;19.90;53.40;;;;;;4963464;28;20046;-90
2023/08/26 07:48:08;;;;;;;3.90;1.33;;;20.00;53.40;;;;;;4963690;28;20066;-90
2023/08/26 07:50:35;;;;;;;3.58;1.10;;;20.00;53.10;;;;;;4960914;28;20451;-91
2023/08/26 07:53:05;;;;;;;3.13;1.00;;;20.00;53.20;;;;;;4963422;28;20081;-89
2023/08/26 07:55:32;;;;;;;3.22;0.70;;;20.00;53.20;;;;;;4960029;28;20883;-88
2023/08/26 07:58:01;;;;;;;2.35;0.70;;;20.10;53.10;;;;;;4962091;28;20058;-89
2023/08/26 08:00:28;;;;;;;2.30;0.90;;;20.10;52.60;;;;;;4963072;28;22391;-89
2023/08/26 08:02:59;;;;;;;2.55;0.80;;;20.10;52.70;;;;;;4964828;28;20065;-92
2023/08/26 08:05:26;;;;;;;1.23;0.70;;;20.20;52.60;;;;;;4962697;28;20081;-88
2023/08/26 08:07:54;;;;;;;1.92;1.00;;;20.20;52.60;;;;;;4961716;28;20540;-89
2023/08/26 08:10:21;;;;;;;3.60;1.08;;;20.20;52.80;;;;;;4962507;28;20475;-89
2023/08/26 08:12:48;;;;;;;4.15;0.95;;;20.20;52.60;;;;;;4962891;28;20055;-90
2023/08/26 08:15:17;;;;;;;2.55;0.70;;;20.20;52.40;;;;;;4961328;28;20073;-89
2023/08/26 08:17:44;;;;;;;8.38;0.98;;;20.30;52.30;;;;;;4963219;28;20066;-87
2023/08/26 08:20:12;;;;;;;2.13;0.90;;;20.30;52.40;;;;;;4960946;28;20059;-87
2023/08/26 08:22:43;;;;;;;4.65;0.80;;;20.30;52.10;;;;;;4962839;28;20054;-88
2023/08/26 08:25:11;;;;;;;2.80;0.77;;;20.30;52.10;;;;;;4961007;28;20399;-89
2023/08/26 08:27:40;;;;;;;2.05;0.80;;;20.40;52.30;;;;;;4959605;28;20051;-88
2023/08/26 08:30:08;;;;;;;2.33;1.00;;;20.40;52.10;;;;;;4961170;28;20534;-87
2023/08/26 08:32:37;;;;;;;4.05;1.00;;;20.40;51.80;;;;;;4962494;28;20412;-89
2023/08/26 08:35:05;;;;;;;2.13;1.02;;;20.50;51.40;;;;;;4956234;28;20077;-90
2023/08/26 08:37:34;;;;;;;2.50;0.82;;;20.50;51.30;;;;;;4961077;28;20434;-90
2023/08/26 08:40:02;;;;;;;3.53;1.10;;;20.50;51.50;;;;;;4962440;28;20062;-89
2023/08/26 08:42:34;;;;;;;2.83;0.73;;;20.50;51.50;;;;;;4957489;28;20054;-89
2023/08/26 08:45:04;;;;;;;3.53;0.80;;;20.60;51.10;;;;;;4961300;28;20061;-91
2023/08/26 08:47:32;;;;;;;3.15;0.80;;;20.60;51.20;;;;;;4960068;28;20057;-89
2023/08/26 08:50:02;;;;;;;1.52;0.55;;;20.60;51.40;;;;;;4956314;28;21827;-90
2023/08/26 08:52:29;;;;;;;1.50;0.82;;;20.60;51.10;;;;;;4961907;28;20058;-90
2023/08/26 08:54:57;;;;;;;3.42;0.93;;;20.70;51.20;;;;;;4957707;28;20415;-89
2023/08/26 08:57:32;;;;;;;2.53;0.93;;;20.70;51.10;;;;;;4960325;28;20058;-89
2023/08/26 09:00:02;;;;;;;3.17;1.10;;;20.70;50.80;;;;;;4959279;28;20047;-91
2023/08/26 09:02:30;;;;;;;1.42;0.80;;;20.70;50.80;;;;;;4961818;28;20070;-88
2023/08/26 09:05:00;;;;;;;2.28;0.95;;;20.80;50.80;;;;;;4956843;28;20055;-89
2023/08/26 09:07:38;;;;;;;1.77;0.63;;;20.80;51.50;;;;;;4960604;28;20070;-89
2023/08/26 09:10:12;;;;;;;1.70;0.82;;;20.80;50.40;;;;;;4955690;28;20272;-90
2023/08/26 09:12:40;;;;;;;2.47;0.70;;;20.90;50.40;;;;;;4953552;28;20062;-90
2023/08/26 09:15:08;;;;;;;3.72;0.80;;;20.90;50.40;;;;;;4959748;28;20499;-89
2023/08/26 09:17:36;;;;;;;2.28;0.77;;;20.90;50.50;;;;;;4960372;28;20651;-89
2023/08/26 09:20:06;;;;;;;2.28;0.90;;;21.00;50.40;;;;;;4960163;28;20066;-93
2023/08/26 09:22:34;;;;;;;3.30;1.00;;;21.00;50.40;;;;;;4960461;28;20070;-92
2023/08/26 09:25:06;;;;;;;1.13;0.60;;;21.10;50.40;;;;;;4960105;28;20046;-91
2023/08/26 09:27:35;;;;;;;5.00;1.15;;;21.10;49.70;;;;;;4958711;28;20503;-89
2023/08/26 09:30:03;;;;;;;2.35;0.80;;;21.10;50.00;;;;;;4958961;28;20402;-88
2023/08/26 09:32:35;;;;;;;4.03;0.88;;;21.20;50.20;;;;;;4958088;28;20401;-89
2023/08/26 09:35:11;;;;;;;2.72;0.90;;;21.20;49.90;;;;;;4958403;28;20054;-92
2023/08/26 09:37:40;;;;;;;2.55;1.08;;;21.30;49.70;;;;;;4958582;28;20051;-88
2023/08/26 09:40:13;;;;;;;3.17;1.08;;;21.30;49.90;;;;;;4958369;28;20074;-90
2023/08/26 09:42:40;;;;;;;0.88;0.50;;;21.40;49.90;;;;;;4960086;28;20054;-90
2023/08/26 09:45:09;;;;;;;6.28;1.05;;;21.40;49.90;;;;;;4956465;28;20154;-92
2023/08/26 09:47:40;;;;;;;1.88;0.75;;;21.40;49.50;;;;;;4962622;28;20058;-94
2023/08/26 09:50:10;;;;;;;1.58;0.73;;;21.50;49.50;;;;;;4965644;28;20139;-91
2023/08/26 09:52:42;;;;;;;2.67;1.08;;;21.50;49.40;;;;;;4957974;28;20054;-89
2023/08/26 09:55:11;;;;;;;2.25;0.82;;;21.60;48.70;;;;;;4956408;28;20058;-90
2023/08/26 09:57:40;;;;;;;2.90;0.75;;;21.70;48.80;;;;;;5027885;23;20055;-90
2023/08/26 10:00:17;;;;;;;3.70;0.88;;;21.70;48.80;;;;;;4976456;28;20738;-90
2023/08/26 10:02:49;;;;;;;4.28;0.70;;;21.80;48.60;;;;;;4972941;28;20076;-89
2023/08/26 10:05:19;;;;;;;4.70;1.00;;;21.90;49.10;;;;;;4973172;28;20053;-90
2023/08/26 10:07:49;;;;;;;5.85;1.20;;;21.90;49.20;;;;;;4994454;23;20058;-90
2023/08/26 10:10:27;;;;;;;2.80;0.95;;;21.90;49.00;;;;;;4977105;28;20058;-89
2023/08/26 10:13:00;;;;;;;8.73;1.05;;;22.00;49.10;;;;;;4973422;28;20065;-89
2023/08/26 10:15:32;;;;;;;9.35;1.50;;;22.10;48.80;;;;;;4977134;28;20309;-90
2023/08/26 10:18:05;;;;;;;76.35;4.63;;;22.10;48.60;;;;;;4975145;28;20520;-91
2023/08/26 10:20:44;;;;;;;10.90;1.30;;;22.20;48.70;;;;;;4975537;28;20050;-90
2023/08/26 10:36:29;;;;;;;1.67;0.70;;;22.60;48.00;;;;;;4945095;28;20055;-49
2023/08/26 10:38:57;;;;;;;1.08;0.60;;;22.60;47.80;;;;;;4947325;28;20062;-53
2023/08/26 10:41:24;;;;;;;3.03;0.80;;;22.60;47.80;;;;;;4946825;28;20055;-54
2023/08/26 10:43:53;;;;;;;1.13;0.65;;;22.60;47.50;;;;;;4946352;28;20047;-53
2023/08/26 10:46:32;;;;;;;1.80;0.70;;;22.70;47.50;;;;;;4946564;28;20421;-51
2023/08/26 10:49:00;;;;;;;1.75;1.00;;;22.70;47.10;;;;;;4945427;28;20373;-52
2023/08/26 10:51:30;;;;;;;1.90;0.93;;;22.70;47.20;;;;;;4946026;28;20503;-54
2023/08/26 10:54:02;;;;;;;1.98;0.60;;;22.70;47.00;;;;;;4947965;28;20432;-52
2023/08/26 10:56:33;;;;;;;2.53;0.70;;;22.70;46.70;;;;;;4946242;28;20074;-52
2023/08/26 10:59:05;;;;;;;2.00;0.85;;;22.70;46.70;;;;;;4945641;28;20055;-52
2023/08/26 11:01:37;;;;;;;1.80;0.90;;;22.70;46.90;;;;;;4946863;28;20051;-55
2023/08/26 11:04:05;;;;;;;1.45;0.65;;;22.70;46.90;;;;;;4946420;28;20058;-51
2023/08/26 11:06:39;;;;;;;2.60;0.60;;;22.80;47.10;;;;;;4944638;28;20051;-54
2023/08/26 11:09:06;;;;;;;2.45;1.00;;;22.80;46.80;;;;;;4947934;28;20061;-52
2023/08/26 11:11:33;;;;;;;1.65;0.90;;;22.80;46.80;;;;;;4944905;28;20112;-56
2023/08/26 11:14:01;;;;;;;27.67;15.35;;;22.80;46.50;;;;;;4945798;28;20054;-53
2023/08/26 11:16:28;;;;;;;6.47;3.15;;;22.80;46.50;;;;;;4947084;28;20075;-49
2023/08/26 11:18:58;;;;;;;3.60;1.20;;;22.80;46.50;;;;;;4945694;28;20062;-52
2023/08/26 11:21:25;;;;;;;1.98;0.70;;;22.90;46.40;;;;;;4946222;28;20059;-54
2023/08/26 11:23:55;;;;;;;3.22;0.80;;;22.90;46.50;;;;;;4947836;28;20055;-55
2023/08/26 11:26:23;;;;;;;2.88;1.00;;;22.90;46.10;;;;;;4946443;28;20054;-56
2023/08/26 11:28:51;;;;;;;0.85;0.80;;;22.90;46.10;;;;;;4947370;28;20542;-56
2023/08/26 11:31:18;;;;;;;2.13;0.88;;;22.90;46.60;;;;;;4946000;28;20043;-56
2023/08/26 11:33:48;;;;;;;1.90;1.13;;;22.90;46.50;;;;;;4945863;28;20380;-54
2023/08/26 11:36:20;;;;;;;1.83;0.80;;;22.90;45.80;;;;;;4944114;28;20439;-59
2023/08/26 11:38:48;;;;;;;2.25;0.85;;;23.00;46.00;;;;;;4946085;28;20055;-52
2023/08/26 11:41:16;;;;;;;2.00;0.90;;;23.00;45.80;;;;;;4946676;28;20051;-53
2023/08/26 11:43:43;;;;;;;1.92;0.52;;;23.00;45.80;;;;;;4945841;28;20059;-49
2023/08/26 11:46:11;;;;;;;2.83;0.82;;;23.10;46.30;;;;;;4945869;28;20051;-50
2023/08/26 11:48:38;;;;;;;2.30;0.80;;;23.10;47.00;;;;;;4946632;28;20055;-54
2023/08/26 11:51:05;;;;;;;2.00;0.77;;;23.10;46.70;;;;;;4945493;28;20388;-50
2023/08/26 11:53:35;;;;;;;1.80;0.80;;;23.20;46.70;;;;;;4945242;28;20059;-58
2023/08/26 11:56:02;;;;;;;2.53;0.77;;;23.30;46.80;;;;;;4945620;28;20078;-55
2023/08/26 11:58:32;;;;;;;2.42;0.77;;;23.30;46.50;;;;;;4946882;28;20051;-51
2023/08/26 12:00:59;;;;;;;1.55;0.98;;;23.40;46.20;;;;;;4948325;28;20063;-51
2023/08/26 12:03:29;;;;;;;2.25;0.80;;;23.40;46.00;;;;;;4944345;28;20051;-58
2023/08/26 12:05:57;;;;;;;1.52;0.80;;;23.50;45.70;;;;;;4944590;28;20066;-50
2023/08/26 12:08:24;;;;;;;2.17;0.82;;;23.50;46.50;;;;;;4946550;28;20414;-51
2023/08/26 12:10:53;;;;;;;3.95;1.23;;;23.50;45.90;;;;;;4945787;28;20054;-55
2023/08/26 12:13:20;;;;;;;2.17;0.70;;;23.50;45.90;;;;;;4947132;28;20055;-57
2023/08/26 12:15:50;;;;;;;1.77;0.90;;;23.50;45.50;;;;;;4946894;28;20059;-56
2023/08/26 12:18:20;;;;;;;2.15;0.95;;;23.50;45.00;;;;;;4946095;28;20058;-58
2023/08/26 12:20:48;;;;;;;1.83;0.75;;;23.60;45.50;;;;;;4944498;28;20054;-49
2023/08/26 12:23:19;;;;;;;3.08;0.80;;;23.60;45.90;;;;;;4946633;28;20059;-56
2023/08/26 12:25:46;;;;;;;2.83;1.00;;;23.70;45.80;;;;;;4945439;28;20047;-57
2023/08/26 12:28:17;;;;;;;3.97;0.68;;;23.70;45.30;;;;;;4944618;28;20051;-57
2023/08/26 12:30:46;;;;;;;2.70;1.17;;;23.70;44.90;;;;;;4945260;28;20058;-56
2023/08/26 12:33:16;;;;;;;2.67;1.00;;;23.70;45.00;;;;;;4946933;28;20424;-56
2023/08/26 12:35:44;;;;;;;3.55;0.93;;;23.80;44.90;;;;;;4926748;28;20062;-54
2023/08/26 12:38:11;;;;;;;2.63;0.85;;;23.80;44.90;;;;;;4944695;28;20062;-60
2023/08/26 12:40:41;;;;;;;3.60;0.82;;;23.80;45.00;;;;;;4944513;28;20508;-51
2023/08/26 12:43:08;;;;;;;1.45;0.85;;;23.90;44.80;;;;;;4944657;28;20058;-50
2023/08/26 12:45:36;;;;;;;2.20;0.90;;;23.90;45.20;;;;;;4946375;28;20051;-52
2023/08/26 12:48:05;;;;;;;1.23;0.70;;;24.00;44.90;;;;;;4945355;28;20059;-50
2023/08/26 12:50:33;;;;;;;2.60;1.48;;;24.00;44.30;;;;;;4944351;28;20058;-54
2023/08/26 12:53:01;;;;;;;2.38;0.93;;;24.00;44.10;;;;;;4944997;28;20055;-55
2023/08/26 12:55:33;;;;;;;1.25;0.80;;;24.10;44.00;;;;;;4945359;28;20055;-52
2023/08/26 12:58:01;;;;;;;1.38;0.85;;;24.10;44.30;;;;;;4943883;28;20449;-51
2023/08/26 13:00:28;;;;;;;2.30;0.95;;;24.10;43.90;;;;;;4944482;28;20058;-53
2023/08/26 13:02:55;;;;;;;2.13;0.80;;;24.20;43.20;;;;;;4945392;28;20059;-52
2023/08/26 13:05:22;;;;;;;1.58;0.90;;;24.20;43.00;;;;;;4943442;28;20062;-49
2023/08/26 13:07:51;;;;;;;5.07;1.20;;;24.20;43.00;;;;;;4944769;28;20055;-58
2023/08/26 13:10:18;;;;;;;1.55;0.68;;;24.20;43.20;;;;;;4946118;28;20059;-52